Terminal Aerodrome Forecast
Issued by NWS Billings, MT

Home | Current Version | Previous Version | Graphics & Text | Print | Product List | Glossary On
Versions: 1 2 3 4 5 6 7 8 9 10 11 12 13 14 15 16 17 18 19 20 21 22 23 24 25 26 27 28 29
000
FTUS45 KBYZ 241139
TAFMLS
TAF
KMLS 241139Z 2412/2512 18006KT P6SM VCSH SCT060 BKN080
      TEMPO 2412/2414 -FZRA SCT040 OVC060
     FM241600 25010KT P6SM SCT080 BKN150
     FM250300 34012KT P6SM -SHRASN SCT025 BKN050
     FM250700 35010KT 2SM -SN BR SCT009 OVC012=

USA.gov is the U.S. government's official web portal to all federal, state and local government web resources and services.